Time;durP1;ratioP1;P1;durP2;ratioP2;P2;SDS_P1;SDS_P2;PMS_P1;PMS_P2;Temp;Humidity;BMP_temperature;BMP_pressure;BME280_temperature;BME280_humidity;BME280_pressure;Samples;Min_cycle;Max_cycle;Signal;HPM_P1;HPM_P2
2024/02/07 00:01:47;;;;;;;;;;;;;;;;;;5055821;28;19995;-74
2024/02/07 00:04:13;;;;;;;;;;;;;;;;;;5073359;28;19909;-74
2024/02/07 00:06:39;;;;;;;;;;;;;;;;;;5073743;28;19916;-73
2024/02/07 00:09:06;;;;;;;;;;;;;;;;;;5073742;28;19909;-73
2024/02/07 00:11:31;;;;;;;;;;;;;;;;;;5073166;28;19995;-73
2024/02/07 00:13:58;;;;;;;;;;;;;;;;;;5073680;28;20007;-73
2024/02/07 00:16:24;;;;;;;;;;;;;;;;;;5073272;28;19909;-74
2024/02/07 00:18:50;;;;;;;;;;;;;;;;;;5073608;28;20379;-73
2024/02/07 00:21:16;;;;;;;;;;;;;;;;;;5073559;28;19931;-73
2024/02/07 00:23:42;;;;;;;;;;;;;;;;;;5073140;28;20017;-74
2024/02/07 00:26:08;;;;;;;;;;;;;;;;;;5073506;28;19916;-74
2024/02/07 00:28:34;;;;;;;;;;;;;;;;;;5073585;28;19912;-74
2024/02/07 00:31:00;;;;;;;;;;;;;;;;;;5073164;28;19961;-74
2024/02/07 00:33:25;;;;;;;;;;;;;;;;;;5073657;28;19924;-74
2024/02/07 00:35:51;;;;;;;;;;;;;;;;;;5077554;28;19915;-74
2024/02/07 00:38:17;;;;;;;;;;;;;;;;;;5077215;28;19916;-74
2024/02/07 00:40:43;;;;;;;;;;;;;;;;;;5077981;28;19955;-74
2024/02/07 00:43:10;;;;;;;;;;;;;;;;;;5077398;28;19942;-74
2024/02/07 00:45:36;;;;;;;;;;;;;;;;;;5077177;28;20356;-74
2024/02/07 00:48:02;;;;;;;;;;;;;;;;;;5077274;28;19952;-74
2024/02/07 00:50:28;;;;;;;;;;;;;;;;;;5077245;28;19908;-74
2024/02/07 00:52:54;;;;;;;;;;;;;;;;;;5076761;28;19924;-74
2024/02/07 00:55:20;;;;;;;;;;;;;;;;;;5077127;28;20003;-74
2024/02/07 00:57:48;;;;;;;;;;;;;;;;;;5077030;28;20001;-75
2024/02/07 01:00:14;;;;;;;;;;;;;;;;;;5076611;28;19951;-74
2024/02/07 01:02:41;;;;;;;;;;;;;;;;;;5076997;28;19938;-74
2024/02/07 01:05:08;;;;;;;;;;;;;;;;;;5077044;28;20332;-74
2024/02/07 01:07:34;;;;;;;;;;;;;;;;;;5058878;28;20276;-73
2024/02/07 01:10:00;;;;;;;;;;;;;;;;;;5059446;28;19908;-73
2024/02/07 01:12:26;;;;;;;;;;;;;;;;;;5076528;28;19920;-74
2024/02/07 01:14:52;;;;;;;;;;;;;;;;;;5076355;28;20373;-74
2024/02/07 01:17:18;;;;;;;;;;;;;;;;;;5076871;28;19999;-73
2024/02/07 01:19:44;;;;;;;;;;;;;;;;;;5076308;28;20380;-73
2024/02/07 01:22:10;;;;;;;;;;;;;;;;;;5076646;28;19915;-74
2024/02/07 01:24:36;;;;;;;;;;;;;;;;;;5076724;28;19955;-74
2024/02/07 01:27:04;;;;;;;;;;;;;;;;;;5076138;28;20276;-74
2024/02/07 01:29:30;;;;;;;;;;;;;;;;;;5076449;28;19916;-74
2024/02/07 01:31:56;;;;;;;;;;;;;;;;;;5076637;28;19943;-74
2024/02/07 01:34:24;;;;;;;;;;;;;;;;;;5076024;28;19908;-74
2024/02/07 01:36:50;;;;;;;;;;;;;;;;;;5076621;28;19915;-74
2024/02/07 01:39:18;;;;;;;;;;;;;;;;;;5076349;28;19909;-73
2024/02/07 01:41:59;;;;;;;;;;;;;;;;;;5075846;28;19909;-73
2024/02/07 01:44:25;;;;;;;;;;;;;;;;;;5076326;28;19915;-74
2024/02/07 01:46:51;;;;;;;;;;;;;;;;;;5076261;28;19943;-74
2024/02/07 01:49:18;;;;;;;;;;;;;;;;;;5075754;28;19999;-74
2024/02/07 01:51:44;;;;;;;;;;;;;;;;;;5076057;28;19919;-74
2024/02/07 01:54:10;;;;;;;;;;;;;;;;;;5076139;28;19999;-74
2024/02/07 01:56:36;;;;;;;;;;;;;;;;;;5075593;28;19999;-74
2024/02/07 01:59:02;;;;;;;;;;;;;;;;;;5076006;28;19909;-74
2024/02/07 02:01:28;;;;;;;;;;;;;;;;;;5075987;28;20430;-74
2024/02/07 02:03:54;;;;;;;;;;;;;;;;;;5075532;28;19913;-74
2024/02/07 02:06:20;;;;;;;;;;;;;;;;;;5075850;28;20433;-73
2024/02/07 02:08:46;;;;;;;;;;;;;;;;;;5057879;28;19944;-74
2024/02/07 02:11:11;;;;;;;;;;;;;;;;;;5075488;28;19909;-74
2024/02/07 02:13:37;;;;;;;;;;;;;;;;;;5075500;28;20015;-74
2024/02/07 02:16:03;;;;;;;;;;;;;;;;;;5075377;28;19935;-73
2024/02/07 02:18:30;;;;;;;;;;;;;;;;;;5075567;28;19908;-73
2024/02/07 02:20:56;;;;;;;;;;;;;;;;;;5075780;28;19915;-74
2024/02/07 02:23:23;;;;;;;;;;;;;;;;;;5075157;28;19909;-74
2024/02/07 02:25:50;;;;;;;;;;;;;;;;;;5075513;28;19915;-74
2024/02/07 02:28:21;;;;;;;;;;;;;;;;;;5075408;28;19908;-73
2024/02/07 02:30:50;;;;;;;;;;;;;;;;;;5075287;28;20373;-73
2024/02/07 02:33:18;;;;;;;;;;;;;;;;;;5075207;28;19917;-74
2024/02/07 02:35:46;;;;;;;;;;;;;;;;;;5075540;28;19909;-74
2024/02/07 02:38:13;;;;;;;;;;;;;;;;;;5074853;28;19909;-74
2024/02/07 02:40:39;;;;;;;;;;;;;;;;;;5075228;28;19908;-74
2024/02/07 02:43:05;;;;;;;;;;;;;;;;;;5075108;28;19947;-73
2024/02/07 02:45:31;;;;;;;;;;;;;;;;;;5074698;28;20376;-73
2024/02/07 02:47:58;;;;;;;;;;;;;;;;;;5074961;28;19909;-74
2024/02/07 02:50:26;;;;;;;;;;;;;;;;;;5075159;28;20285;-73
2024/02/07 02:52:51;;;;;;;;;;;;;;;;;;5074595;28;19917;-73
2024/02/07 02:55:17;;;;;;;;;;;;;;;;;;5074896;28;20396;-73
2024/02/07 02:57:45;;;;;;;;;;;;;;;;;;5074027;28;20406;-73
2024/02/07 03:00:14;;;;;;;;;;;;;;;;;;5074351;28;19954;-74
2024/02/07 03:02:40;;;;;;;;;;;;;;;;;;5074684;28;19916;-73
2024/02/07 03:05:26;;;;;;;;;;;;;;;;;;5074460;28;19916;-74
2024/02/07 03:08:05;;;;;;;;;;;;;;;;;;5074673;28;20050;-74
2024/02/07 03:10:31;;;;;;;;;;;;;;;;;;5074647;28;20365;-74
2024/02/07 03:12:56;;;;;;;;;;;;;;;;;;5073843;28;19927;-74
2024/02/07 03:15:22;;;;;;;;;;;;;;;;;;5074645;28;19912;-73
2024/02/07 03:17:48;;;;;;;;;;;;;;;;;;5074456;28;19909;-73
2024/02/07 03:20:15;;;;;;;;;;;;;;;;;;5073988;28;19909;-73
2024/02/07 03:22:41;;;;;;;;;;;;;;;;;;5074413;28;19919;-74
2024/02/07 03:25:13;;;;;;;;;;;;;;;;;;5074381;28;19952;-74
2024/02/07 03:27:39;;;;;;;;;;;;;;;;;;5073908;28;19909;-73
2024/02/07 03:30:05;;;;;;;;;;;;;;;;;;5074271;28;20390;-73
2024/02/07 03:32:31;;;;;;;;;;;;;;;;;;5074184;28;20436;-74
2024/02/07 03:34:57;;;;;;;;;;;;;;;;;;5073743;28;20280;-74
2024/02/07 03:37:23;;;;;;;;;;;;;;;;;;5074051;28;19919;-74
2024/02/07 03:39:49;;;;;;;;;;;;;;;;;;5074041;28;19909;-74
2024/02/07 03:42:15;;;;;;;;;;;;;;;;;;5073655;28;19908;-74
2024/02/07 03:44:42;;;;;;;;;;;;;;;;;;5074290;28;19908;-75
2024/02/07 03:47:09;;;;;;;;;;;;;;;;;;5074039;28;19916;-74
2024/02/07 03:49:35;;;;;;;;;;;;;;;;;;5073543;28;19931;-73
2024/02/07 03:52:01;;;;;;;;;;;;;;;;;;5073855;28;19915;-74
2024/02/07 03:54:27;;;;;;;;;;;;;;;;;;5073589;28;19966;-74
2024/02/07 03:56:53;;;;;;;;;;;;;;;;;;5074395;28;19908;-74
2024/02/07 03:59:20;;;;;;;;;;;;;;;;;;5074020;28;19909;-74
2024/02/07 04:01:46;;;;;;;;;;;;;;;;;;5073406;28;19909;-74
2024/02/07 04:04:11;;;;;;;;;;;;;;;;;;5073948;28;19962;-74
2024/02/07 04:06:38;;;;;;;;;;;;;;;;;;5073685;28;20003;-74
2024/02/07 04:09:05;;;;;;;;;;;;;;;;;;5073360;28;20396;-74
2024/02/07 05:16:44;;;;;;;;;;;;;;;;;;5073201;28;20066;-74
2024/02/07 05:19:10;;;;;;;;;;;;;;;;;;5072711;28;19944;-74
2024/02/07 05:21:39;;;;;;;;;;;;;;;;;;5076514;28;19932;-74
2024/02/07 05:24:10;;;;;;;;;;;;;;;;;;5076661;28;19908;-74
2024/02/07 05:26:36;;;;;;;;;;;;;;;;;;5076485;28;19916;-74
2024/02/07 05:29:02;;;;;;;;;;;;;;;;;;5076419;28;19908;-73
2024/02/07 05:31:29;;;;;;;;;;;;;;;;;;5076613;28;19909;-75
2024/02/07 05:33:55;;;;;;;;;;;;;;;;;;5076174;28;20431;-74
2024/02/07 05:36:21;;;;;;;;;;;;;;;;;;5076375;28;20015;-74
2024/02/07 05:38:47;;;;;;;;;;;;;;;;;;5076332;28;19908;-74
2024/02/07 05:46:42;;;;;;;;;;;;;;;;;;5076350;28;20015;-74
2024/02/07 05:49:08;;;;;;;;;;;;;;;;;;5075860;28;19908;-73
2024/02/07 05:51:34;;;;;;;;;;;;;;;;;;5076195;28;19916;-73
2024/02/07 05:54:00;;;;;;;;;;;;;;;;;;5075690;28;19926;-73
2024/02/07 05:56:26;;;;;;;;;;;;;;;;;;5075816;28;19915;-73
2024/02/07 05:58:52;;;;;;;;;;;;;;;;;;5075851;28;19931;-73
2024/02/07 06:01:18;;;;;;;;;;;;;;;;;;5075596;28;19908;-73
2024/02/07 06:03:50;;;;;;;;;;;;;;;;;;5075915;28;19999;-73
2024/02/07 06:06:16;;;;;;;;;;;;;;;;;;5076099;28;19908;-73
2024/02/07 06:08:42;;;;;;;;;;;;;;;;;;5075486;28;19916;-73
2024/02/07 06:11:08;;;;;;;;;;;;;;;;;;5075683;28;19940;-73
2024/02/07 06:13:33;;;;;;;;;;;;;;;;;;5075534;28;19968;-73
2024/02/07 06:16:00;;;;;;;;;;;;;;;;;;5075338;28;19954;-73
2024/02/07 06:18:26;;;;;;;;;;;;;;;;;;5075606;28;19962;-73
2024/02/07 06:20:52;;;;;;;;;;;;;;;;;;5067847;28;19916;-75
2024/02/07 06:23:20;;;;;;;;;;;;;;;;;;5067083;28;19916;-72
2024/02/07 06:25:46;;;;;;;;;;;;;;;;;;5055058;28;20003;-72
2024/02/07 06:28:13;;;;;;;;;;;;;;;;;;5073896;28;20024;-70
2024/02/07 06:30:39;;;;;;;;;;;;;;;;;;5055152;28;20376;-72
2024/02/07 06:33:07;;;;;;;;;;;;;;;;;;5065368;28;19974;-71
2024/02/07 06:35:34;;;;;;;;;;;;;;;;;;5073121;28;19944;-70
2024/02/07 06:38:00;;;;;;;;;;;;;;;;;;5072608;28;19916;-69
2024/02/07 06:40:28;;;;;;;;;;;;;;;;;;5073719;28;19988;-69
2024/02/07 06:42:54;;;;;;;;;;;;;;;;;;5073287;28;19913;-68
2024/02/07 06:45:20;;;;;;;;;;;;;;;;;;5071503;28;20098;-68
2024/02/07 06:47:46;;;;;;;;;;;;;;;;;;5073691;28;19913;-72
2024/02/07 06:50:12;;;;;;;;;;;;;;;;;;5071800;28;19920;-71
2024/02/07 06:52:38;;;;;;;;;;;;;;;;;;5069884;28;20019;-68
2024/02/07 06:55:04;;;;;;;;;;;;;;;;;;5053021;28;19916;-68
2024/02/07 06:57:30;;;;;;;;;;;;;;;;;;5053258;28;19913;-72
2024/02/07 06:59:55;;;;;;;;;;;;;;;;;;5053564;28;19945;-71
2024/02/07 07:02:21;;;;;;;;;;;;;;;;;;5053243;28;19916;-72
2024/02/07 07:04:47;;;;;;;;;;;;;;;;;;5059496;28;19947;-72
2024/02/07 07:07:13;;;;;;;;;;;;;;;;;;5073462;28;19965;-71
2024/02/07 07:09:39;;;;;;;;;;;;;;;;;;5073145;28;19923;-71
2024/02/07 07:12:05;;;;;;;;;;;;;;;;;;5068310;28;19920;-72
2024/02/07 07:14:31;;;;;;;;;;;;;;;;;;5073196;28;20386;-72
2024/02/07 07:16:57;;;;;;;;;;;;;;;;;;5072688;28;19909;-72
2024/02/07 07:19:23;;;;;;;;;;;;;;;;;;5053371;28;20015;-73
2024/02/07 07:21:49;;;;;;;;;;;;;;;;;;5052932;28;19955;-74
2024/02/07 07:24:19;;;;;;;;;;;;;;;;;;5052378;28;20547;-74
2024/02/07 07:26:45;;;;;;;;;;;;;;;;;;5069140;28;19908;-72
2024/02/07 07:29:11;;;;;;;;;;;;;;;;;;5070122;28;19912;-70
2024/02/07 07:31:37;;;;;;;;;;;;;;;;;;5068407;28;19935;-71
2024/02/07 07:34:03;;;;;;;;;;;;;;;;;;5061299;28;19924;-73
2024/02/07 07:36:32;;;;;;;;;;;;;;;;;;5068548;28;19944;-69
2024/02/07 07:38:57;;;;;;;;;;;;;;;;;;5068530;28;20445;-69
2024/02/07 07:41:23;;;;;;;;;;;;;;;;;;5067409;28;20011;-70
2024/02/07 07:43:50;;;;;;;;;;;;;;;;;;5073387;28;19923;-70
2024/02/07 07:46:16;;;;;;;;;;;;;;;;;;5068927;28;20039;-71
2024/02/07 07:48:42;;;;;;;;;;;;;;;;;;5069818;28;20365;-69
2024/02/07 07:51:08;;;;;;;;;;;;;;;;;;5072537;28;19909;-70
2024/02/07 07:53:34;;;;;;;;;;;;;;;;;;5053226;28;20023;-68
2024/02/07 07:56:00;;;;;;;;;;;;;;;;;;5072445;28;19916;-71
2024/02/07 07:58:26;;;;;;;;;;;;;;;;;;5053596;28;19962;-71
2024/02/07 08:00:52;;;;;;;;;;;;;;;;;;5071231;28;19916;-71
2024/02/07 08:03:18;;;;;;;;;;;;;;;;;;5072444;28;20360;-70
2024/02/07 08:05:44;;;;;;;;;;;;;;;;;;5072493;28;19916;-71
2024/02/07 08:08:10;;;;;;;;;;;;;;;;;;5071261;28;20003;-70
2024/02/07 08:10:36;;;;;;;;;;;;;;;;;;5071710;28;19915;-70
2024/02/07 08:13:02;;;;;;;;;;;;;;;;;;5049933;28;19925;-71
2024/02/07 08:15:27;;;;;;;;;;;;;;;;;;5051959;28;20006;-69
2024/02/07 08:17:53;;;;;;;;;;;;;;;;;;5052484;28;19923;-69
2024/02/07 08:20:24;;;;;;;;;;;;;;;;;;5047999;28;19913;-68
2024/02/07 08:22:50;;;;;;;;;;;;;;;;;;5049154;28;19927;-68
2024/02/07 08:25:15;;;;;;;;;;;;;;;;;;5050201;28;19913;-69
2024/02/07 08:27:41;;;;;;;;;;;;;;;;;;5049284;28;19943;-70
2024/02/07 08:30:07;;;;;;;;;;;;;;;;;;5050200;28;19913;-69
2024/02/07 08:32:33;;;;;;;;;;;;;;;;;;5049648;28;20387;-70
2024/02/07 08:34:59;;;;;;;;;;;;;;;;;;5048356;28;19913;-70
2024/02/07 08:37:28;;;;;;;;;;;;;;;;;;5047683;28;19913;-67
2024/02/07 08:39:54;;;;;;;;;;;;;;;;;;5045545;28;20369;-70
2024/02/07 08:42:20;;;;;;;;;;;;;;;;;;5045393;28;20015;-69
2024/02/07 08:44:46;;;;;;;;;;;;;;;;;;5048395;28;20380;-68
2024/02/07 08:47:12;;;;;;;;;;;;;;;;;;5048976;28;19913;-68
2024/02/07 08:49:38;;;;;;;;;;;;;;;;;;5048162;28;20003;-68
2024/02/07 08:52:04;;;;;;;;;;;;;;;;;;5051483;28;19909;-68
2024/02/07 08:54:33;;;;;;;;;;;;;;;;;;5050670;28;19966;-68
2024/02/07 08:56:59;;;;;;;;;;;;;;;;;;5040150;28;19951;-68
2024/02/07 08:59:25;;;;;;;;;;;;;;;;;;5036915;28;19951;-68
2024/02/07 09:01:51;;;;;;;;;;;;;;;;;;5052651;28;19913;-68
2024/02/07 09:04:17;;;;;;;;;;;;;;;;;;5053060;28;19973;-69
2024/02/07 09:06:43;;;;;;;;;;;;;;;;;;5051568;28;20289;-69
2024/02/07 09:09:08;;;;;;;;;;;;;;;;;;5053273;28;20523;-69
2024/02/07 09:11:34;;;;;;;;;;;;;;;;;;5051103;28;19982;-69
2024/02/07 09:14:00;;;;;;;;;;;;;;;;;;5071215;28;19921;-68
2024/02/07 09:16:26;;;;;;;;;;;;;;;;;;5063960;28;19920;-68
2024/02/07 09:18:52;;;;;;;;;;;;;;;;;;5071229;28;19919;-69
2024/02/07 09:21:18;;;;;;;;;;;;;;;;;;5071627;28;19912;-68
2024/02/07 09:23:44;;;;;;;;;;;;;;;;;;5071833;28;19908;-69
2024/02/07 09:26:10;;;;;;;;;;;;;;;;;;5060819;28;19963;-69
2024/02/07 09:28:36;;;;;;;;;;;;;;;;;;5067593;28;19963;-70
2024/02/07 09:31:02;;;;;;;;;;;;;;;;;;5070306;28;19912;-69
2024/02/07 09:33:28;;;;;;;;;;;;;;;;;;5070015;28;19927;-70
2024/02/07 09:35:57;;;;;;;;;;;;;;;;;;5071059;28;19999;-70
2024/02/07 09:38:28;;;;;;;;;;;;;;;;;;5086675;28;19916;-71
2024/02/07 09:40:55;;;;;;;;;;;;;;;;;;5073264;28;20395;-69
2024/02/07 09:43:21;;;;;;;;;;;;;;;;;;5077234;28;19913;-69
2024/02/07 09:45:49;;;;;;;;;;;;;;;;;;5073804;28;20254;-74
2024/02/07 09:48:18;;;;;;;;;;;;;;;;;;5072340;28;19919;-70
2024/02/07 09:50:44;;;;;;;;;;;;;;;;;;5068760;28;19916;-71
2024/02/07 09:53:10;;;;;;;;;;;;;;;;;;5071348;28;19924;-70
2024/02/07 09:55:36;;;;;;;;;;;;;;;;;;5065256;28;19978;-69
2024/02/07 09:58:03;;;;;;;;;;;;;;;;;;5067047;28;19916;-69
2024/02/07 10:00:29;;;;;;;;;;;;;;;;;;5068164;28;20358;-70
2024/02/07 10:02:56;;;;;;;;;;;;;;;;;;5050654;28;19912;-70
2024/02/07 10:05:22;;;;;;;;;;;;;;;;;;5068867;28;19919;-69
2024/02/07 10:07:48;;;;;;;;;;;;;;;;;;5053335;28;19912;-69
2024/02/07 10:10:14;;;;;;;;;;;;;;;;;;5066206;28;19913;-70
2024/02/07 10:12:40;;;;;;;;;;;;;;;;;;5071036;28;20007;-70
2024/02/07 10:15:06;;;;;;;;;;;;;;;;;;5068072;28;20008;-69
2024/02/07 10:17:32;;;;;;;;;;;;;;;;;;5068844;28;19913;-68
2024/02/07 10:19:58;;;;;;;;;;;;;;;;;;5070560;28;19978;-69
2024/02/07 10:22:24;;;;;;;;;;;;;;;;;;5070898;28;19948;-69
2024/02/07 10:24:50;;;;;;;;;;;;;;;;;;5071525;28;19939;-69
2024/02/07 10:27:16;;;;;;;;;;;;;;;;;;5067006;28;19968;-70
2024/02/07 10:29:42;;;;;;;;;;;;;;;;;;5067919;28;19965;-70
2024/02/07 10:32:08;;;;;;;;;;;;;;;;;;5067086;28;19920;-70
2024/02/07 10:34:36;;;;;;;;;;;;;;;;;;5036307;28;19958;-70
2024/02/07 10:37:02;;;;;;;;;;;;;;;;;;5062603;28;19952;-72
2024/02/07 10:39:28;;;;;;;;;;;;;;;;;;5064448;28;19958;-70
2024/02/07 10:41:57;;;;;;;;;;;;;;;;;;5057167;28;19939;-69
2024/02/07 10:44:23;;;;;;;;;;;;;;;;;;5062881;28;19920;-70
2024/02/07 10:46:49;;;;;;;;;;;;;;;;;;5067491;28;19920;-69
2024/02/07 10:49:15;;;;;;;;;;;;;;;;;;5052729;28;19916;-70
2024/02/07 10:51:41;;;;;;;;;;;;;;;;;;5041003;28;20369;-69
2024/02/07 10:54:07;;;;;;;;;;;;;;;;;;5063425;28;19967;-70
2024/02/07 10:56:34;;;;;;;;;;;;;;;;;;5042783;28;19921;-71
2024/02/07 10:59:00;;;;;;;;;;;;;;;;;;5071675;28;19916;-71
2024/02/07 11:01:26;;;;;;;;;;;;;;;;;;5054930;28;19986;-70
2024/02/07 11:03:52;;;;;;;;;;;;;;;;;;5064698;28;19919;-69
2024/02/07 11:06:18;;;;;;;;;;;;;;;;;;5060062;28;19912;-70
2024/02/07 11:08:44;;;;;;;;;;;;;;;;;;5068204;28;19913;-70
2024/02/07 11:11:10;;;;;;;;;;;;;;;;;;5065712;28;20034;-70
2024/02/07 11:13:36;;;;;;;;;;;;;;;;;;5062264;28;20615;-75
2024/02/07 11:16:02;;;;;;;;;;;;;;;;;;5059410;28;19955;-70
2024/02/07 11:18:28;;;;;;;;;;;;;;;;;;5063471;28;20073;-68
2024/02/07 11:20:54;;;;;;;;;;;;;;;;;;5065937;28;19916;-70
2024/02/07 11:23:20;;;;;;;;;;;;;;;;;;5048528;28;19913;-69
2024/02/07 11:25:46;;;;;;;;;;;;;;;;;;5063486;28;19928;-69
2024/02/07 11:28:12;;;;;;;;;;;;;;;;;;5059080;28;19913;-69
2024/02/07 11:30:38;;;;;;;;;;;;;;;;;;5066730;28;20490;-69
2024/02/07 11:33:04;;;;;;;;;;;;;;;;;;5051197;28;19924;-69
2024/02/07 11:35:30;;;;;;;;;;;;;;;;;;5053138;28;19909;-70
2024/02/07 11:37:56;;;;;;;;;;;;;;;;;;5068626;28;19920;-69
2024/02/07 11:40:26;;;;;;;;;;;;;;;;;;5065619;28;19913;-68
2024/02/07 11:42:52;;;;;;;;;;;;;;;;;;5069340;28;20284;-68
2024/02/07 11:45:19;;;;;;;;;;;;;;;;;;5081495;28;19917;-68
2024/02/07 11:47:45;;;;;;;;;;;;;;;;;;5081858;28;19956;-69
2024/02/07 11:50:11;;;;;;;;;;;;;;;;;;5075082;28;19916;-68
2024/02/07 11:52:37;;;;;;;;;;;;;;;;;;5077283;28;19920;-69
2024/02/07 11:55:03;;;;;;;;;;;;;;;;;;5067098;28;19927;-68
2024/02/07 11:57:29;;;;;;;;;;;;;;;;;;5067287;28;19916;-70
2024/02/07 11:59:56;;;;;;;;;;;;;;;;;;5064359;28;19916;-69
2024/02/07 12:02:22;;;;;;;;;;;;;;;;;;5061122;28;19917;-70
2024/02/07 12:04:48;;;;;;;;;;;;;;;;;;5080463;28;20358;-69
2024/02/07 12:07:14;;;;;;;;;;;;;;;;;;5075438;28;19916;-72
2024/02/07 12:09:40;;;;;;;;;;;;;;;;;;5073634;28;19912;-69
2024/02/07 12:12:12;;;;;;;;;;;;;;;;;;5070736;28;20563;-69
2024/02/07 12:14:38;;;;;;;;;;;;;;;;;;5082308;28;19925;-69
2024/02/07 12:17:03;;;;;;;;;;;;;;;;;;5072137;28;20115;-69
2024/02/07 12:19:29;;;;;;;;;;;;;;;;;;5049071;28;19912;-69
2024/02/07 12:21:55;;;;;;;;;;;;;;;;;;5078882;28;19956;-68
2024/02/07 12:24:21;;;;;;;;;;;;;;;;;;5065781;28;19913;-72
2024/02/07 12:26:47;;;;;;;;;;;;;;;;;;5058354;28;19967;-68
2024/02/07 12:29:13;;;;;;;;;;;;;;;;;;5055586;28;19956;-69
2024/02/07 12:31:39;;;;;;;;;;;;;;;;;;5072255;28;19916;-69
2024/02/07 12:34:05;;;;;;;;;;;;;;;;;;5071926;28;19916;-69
2024/02/07 12:36:32;;;;;;;;;;;;;;;;;;5073046;28;20002;-68
2024/02/07 12:38:58;;;;;;;;;;;;;;;;;;5073075;28;19912;-66
2024/02/07 12:41:24;;;;;;;;;;;;;;;;;;5051463;28;20035;-68
2024/02/07 12:43:50;;;;;;;;;;;;;;;;;;5069284;28;20383;-69
2024/02/07 12:46:16;;;;;;;;;;;;;;;;;;5068946;28;20017;-67
2024/02/07 12:48:42;;;;;;;;;;;;;;;;;;5069067;28;19919;-69
2024/02/07 12:51:08;;;;;;;;;;;;;;;;;;5069609;28;19912;-71
2024/02/07 12:53:34;;;;;;;;;;;;;;;;;;5069608;28;19928;-69
2024/02/07 12:56:01;;;;;;;;;;;;;;;;;;5066955;28;19916;-68
2024/02/07 12:58:27;;;;;;;;;;;;;;;;;;5071730;28;19915;-68
2024/02/07 13:00:53;;;;;;;;;;;;;;;;;;5072832;28;19913;-68
2024/02/07 13:03:18;;;;;;;;;;;;;;;;;;5075708;28;19912;-69
2024/02/07 13:05:44;;;;;;;;;;;;;;;;;;5075326;28;19966;-68
2024/02/07 13:08:11;;;;;;;;;;;;;;;;;;5058228;28;19917;-67
2024/02/07 13:10:40;;;;;;;;;;;;;;;;;;5075773;28;19913;-67
2024/02/07 13:13:06;;;;;;;;;;;;;;;;;;5069544;28;20714;-67
2024/02/07 13:15:32;;;;;;;;;;;;;;;;;;5067253;28;20399;-67
2024/02/07 13:17:57;;;;;;;;;;;;;;;;;;5067497;28;19916;-66
2024/02/07 13:20:23;;;;;;;;;;;;;;;;;;5068300;28;20015;-68
2024/02/07 13:22:50;;;;;;;;;;;;;;;;;;5069699;28;20419;-69
2024/02/07 13:25:16;;;;;;;;;;;;;;;;;;5074885;28;19908;-70
2024/02/07 13:27:42;;;;;;;;;;;;;;;;;;5075068;28;19908;-72
2024/02/07 13:30:09;;;;;;;;;;;;;;;;;;5074730;28;20481;-70
2024/02/07 13:32:35;;;;;;;;;;;;;;;;;;5073654;28;20462;-71
2024/02/07 13:35:01;;;;;;;;;;;;;;;;;;5067589;28;20361;-71
2024/02/07 13:37:27;;;;;;;;;;;;;;;;;;5073208;28;19920;-70
2024/02/07 13:39:53;;;;;;;;;;;;;;;;;;5073961;28;19912;-70
2024/02/07 13:42:19;;;;;;;;;;;;;;;;;;5069714;28;20003;-70
2024/02/07 13:44:45;;;;;;;;;;;;;;;;;;5073179;28;19995;-72
2024/02/07 13:47:11;;;;;;;;;;;;;;;;;;5056897;28;19909;-72
2024/02/07 13:49:37;;;;;;;;;;;;;;;;;;5074935;28;20021;-72
2024/02/07 13:52:03;;;;;;;;;;;;;;;;;;5073364;28;19912;-72
2024/02/07 13:54:29;;;;;;;;;;;;;;;;;;5072075;28;19917;-71
2024/02/07 13:56:55;;;;;;;;;;;;;;;;;;5070983;28;19908;-71
2024/02/07 13:59:21;;;;;;;;;;;;;;;;;;5072182;28;19913;-71
2024/02/07 14:01:47;;;;;;;;;;;;;;;;;;5055115;28;19908;-71
2024/02/07 14:04:13;;;;;;;;;;;;;;;;;;5073007;28;19938;-71
2024/02/07 14:06:39;;;;;;;;;;;;;;;;;;5072643;28;19908;-71
2024/02/07 14:09:05;;;;;;;;;;;;;;;;;;5074263;28;19915;-71
2024/02/07 14:11:31;;;;;;;;;;;;;;;;;;5072333;28;19909;-72
2024/02/07 14:13:57;;;;;;;;;;;;;;;;;;5054237;28;19916;-71
2024/02/07 14:16:23;;;;;;;;;;;;;;;;;;5073878;28;19940;-72
2024/02/07 14:18:49;;;;;;;;;;;;;;;;;;5073054;28;20012;-71
2024/02/07 14:21:15;;;;;;;;;;;;;;;;;;5055191;28;20022;-71
2024/02/07 14:23:41;;;;;;;;;;;;;;;;;;5071099;28;19940;-71
2024/02/07 14:26:07;;;;;;;;;;;;;;;;;;5074329;28;19916;-71
2024/02/07 14:28:33;;;;;;;;;;;;;;;;;;5074766;28;20007;-71
2024/02/07 14:30:59;;;;;;;;;;;;;;;;;;5074769;28;19909;-72
2024/02/07 14:33:25;;;;;;;;;;;;;;;;;;5075292;28;19969;-73
2024/02/07 14:35:51;;;;;;;;;;;;;;;;;;5074438;28;20317;-72
2024/02/07 14:38:20;;;;;;;;;;;;;;;;;;5074231;28;19908;-71
2024/02/07 14:40:46;;;;;;;;;;;;;;;;;;5075053;28;19975;-71
2024/02/07 14:43:12;;;;;;;;;;;;;;;;;;5074050;28;20422;-72
2024/02/07 14:45:38;;;;;;;;;;;;;;;;;;5074601;28;19951;-72
2024/02/07 14:48:04;;;;;;;;;;;;;;;;;;5074892;28;19940;-72
2024/02/07 14:50:30;;;;;;;;;;;;;;;;;;5056310;28;19909;-72
2024/02/07 14:52:56;;;;;;;;;;;;;;;;;;5072509;28;19920;-71
2024/02/07 14:55:22;;;;;;;;;;;;;;;;;;5074650;28;20015;-72
2024/02/07 14:57:48;;;;;;;;;;;;;;;;;;5056424;28;19935;-72
2024/02/07 15:00:14;;;;;;;;;;;;;;;;;;5074135;28;19909;-71
2024/02/07 15:02:40;;;;;;;;;;;;;;;;;;5055894;28;19940;-72
2024/02/07 15:05:06;;;;;;;;;;;;;;;;;;5074692;28;19935;-72
2024/02/07 15:07:32;;;;;;;;;;;;;;;;;;5074249;28;19912;-72
2024/02/07 15:09:58;;;;;;;;;;;;;;;;;;5073853;28;19908;-72
2024/02/07 15:12:24;;;;;;;;;;;;;;;;;;5073921;28;20003;-72
2024/02/07 15:14:50;;;;;;;;;;;;;;;;;;5074048;28;19909;-72
2024/02/07 15:17:16;;;;;;;;;;;;;;;;;;5055747;28;19908;-71
2024/02/07 15:19:43;;;;;;;;;;;;;;;;;;5074433;28;19915;-71
2024/02/07 15:22:09;;;;;;;;;;;;;;;;;;5073558;28;19954;-71
2024/02/07 15:24:35;;;;;;;;;;;;;;;;;;5073397;28;19909;-71
2024/02/07 15:27:01;;;;;;;;;;;;;;;;;;5074151;28;19947;-71
2024/02/07 15:29:27;;;;;;;;;;;;;;;;;;5073526;28;19979;-71
2024/02/07 15:31:53;;;;;;;;;;;;;;;;;;5073877;28;20257;-71
2024/02/07 15:34:19;;;;;;;;;;;;;;;;;;5074149;28;19924;-72
2024/02/07 15:36:45;;;;;;;;;;;;;;;;;;5073394;28;19938;-72
2024/02/07 15:39:11;;;;;;;;;;;;;;;;;;5055795;28;19915;-72
2024/02/07 15:41:37;;;;;;;;;;;;;;;;;;5074064;28;20005;-72
2024/02/07 15:44:03;;;;;;;;;;;;;;;;;;5072996;28;19912;-72
2024/02/07 15:46:29;;;;;;;;;;;;;;;;;;5055816;28;19909;-73
2024/02/07 15:48:54;;;;;;;;;;;;;;;;;;5074141;28;19909;-71
2024/02/07 15:51:24;;;;;;;;;;;;;;;;;;5073197;28;20368;-71
2024/02/07 15:53:49;;;;;;;;;;;;;;;;;;5073326;28;19955;-71
2024/02/07 15:56:15;;;;;;;;;;;;;;;;;;5073580;28;19934;-72
2024/02/07 15:58:41;;;;;;;;;;;;;;;;;;5073022;28;20288;-71
2024/02/07 16:01:07;;;;;;;;;;;;;;;;;;5073218;28;19961;-71
2024/02/07 16:03:33;;;;;;;;;;;;;;;;;;5072928;28;19978;-73
2024/02/07 16:06:01;;;;;;;;;;;;;;;;;;5072748;28;19912;-71
2024/02/07 16:08:27;;;;;;;;;;;;;;;;;;5073707;28;19909;-71
2024/02/07 16:10:53;;;;;;;;;;;;;;;;;;5073165;28;19984;-71
2024/02/07 16:13:19;;;;;;;;;;;;;;;;;;5072316;28;20315;-72
2024/02/07 16:15:46;;;;;;;;;;;;;;;;;;5072635;28;21374;-70
2024/02/07 16:18:12;;;;;;;;;;;;;;;;;;5073365;28;19951;-71
2024/02/07 16:20:38;;;;;;;;;;;;;;;;;;5072304;28;19958;-71
2024/02/07 16:23:04;;;;;;;;;;;;;;;;;;5070095;28;19943;-71
2024/02/07 16:25:30;;;;;;;;;;;;;;;;;;5072333;28;20257;-72
2024/02/07 16:27:56;;;;;;;;;;;;;;;;;;5072811;28;19931;-71
2024/02/07 16:30:22;;;;;;;;;;;;;;;;;;5055509;28;19908;-71
2024/02/07 16:32:48;;;;;;;;;;;;;;;;;;5054823;28;20019;-71
2024/02/07 16:35:14;;;;;;;;;;;;;;;;;;5072786;28;19974;-71
2024/02/07 16:37:40;;;;;;;;;;;;;;;;;;5073152;28;19909;-73
2024/02/07 16:40:06;;;;;;;;;;;;;;;;;;5073023;28;19908;-72
2024/02/07 16:42:32;;;;;;;;;;;;;;;;;;5072660;28;19998;-73
2024/02/07 16:44:58;;;;;;;;;;;;;;;;;;5072947;28;19915;-72
2024/02/07 16:47:24;;;;;;;;;;;;;;;;;;5073045;28;19909;-73
2024/02/07 16:49:50;;;;;;;;;;;;;;;;;;5072762;28;19995;-71
2024/02/07 16:52:20;;;;;;;;;;;;;;;;;;5073053;28;19909;-71
2024/02/07 16:54:46;;;;;;;;;;;;;;;;;;5070492;28;19916;-71
2024/02/07 16:57:12;;;;;;;;;;;;;;;;;;5047313;28;19908;-73
2024/02/07 16:59:37;;;;;;;;;;;;;;;;;;5072456;28;19916;-70
2024/02/07 17:02:03;;;;;;;;;;;;;;;;;;5072230;28;19995;-70
2024/02/07 17:04:29;;;;;;;;;;;;;;;;;;5072752;28;19954;-70
2024/02/07 17:06:55;;;;;;;;;;;;;;;;;;5072971;28;19912;-70
2024/02/07 17:09:21;;;;;;;;;;;;;;;;;;5071379;28;19908;-72
2024/02/07 17:11:47;;;;;;;;;;;;;;;;;;5072621;28;19952;-71
2024/02/07 17:14:13;;;;;;;;;;;;;;;;;;5054776;28;19997;-71
2024/02/07 17:16:39;;;;;;;;;;;;;;;;;;5074625;28;19912;-70
2024/02/07 17:19:05;;;;;;;;;;;;;;;;;;5075397;28;20315;-71
2024/02/07 17:21:32;;;;;;;;;;;;;;;;;;5076373;28;19962;-71
2024/02/07 17:23:59;;;;;;;;;;;;;;;;;;5075880;28;19933;-71
2024/02/07 17:26:25;;;;;;;;;;;;;;;;;;5076317;28;19917;-70
2024/02/07 17:28:52;;;;;;;;;;;;;;;;;;5075121;28;19916;-73
2024/02/07 17:31:18;;;;;;;;;;;;;;;;;;5074532;28;19915;-71
2024/02/07 17:33:44;;;;;;;;;;;;;;;;;;5072620;28;20439;-71
2024/02/07 17:36:10;;;;;;;;;;;;;;;;;;5074848;28;19908;-71
2024/02/07 17:38:36;;;;;;;;;;;;;;;;;;5074356;28;19908;-70
2024/02/07 17:41:07;;;;;;;;;;;;;;;;;;5057800;28;19975;-71
2024/02/07 17:43:33;;;;;;;;;;;;;;;;;;5076151;28;19908;-72
2024/02/07 17:45:59;;;;;;;;;;;;;;;;;;5075605;28;19955;-72
2024/02/07 17:48:25;;;;;;;;;;;;;;;;;;5076024;28;19908;-72
2024/02/07 17:50:51;;;;;;;;;;;;;;;;;;5076214;28;19946;-71